Time;durP1;ratioP1;P1;durP2;ratioP2;P2;SDS_P1;SDS_P2;PMS_P1;PMS_P2;Temp;Humidity;BMP_temperature;BMP_pressure;BME280_temperature;BME280_humidity;BME280_pressure;Samples;Min_cycle;Max_cycle;Signal;HPM_P1;HPM_P2
2024/01/07 00:01:29;;;;;;;16.80;12.63;;;8.00;99.90;;;;;;4955794;28;20485;-36
2024/01/07 00:03:56;;;;;;;19.43;13.20;;;8.00;99.90;;;;;;4958221;28;20437;-35
2024/01/07 00:06:23;;;;;;;17.33;12.10;;;8.00;99.90;;;;;;4960502;28;20442;-38
2024/01/07 00:08:52;;;;;;;18.10;12.20;;;8.00;99.90;;;;;;4973779;28;21731;-39
2024/01/07 00:11:18;;;;;;;18.23;11.70;;;8.00;99.90;;;;;;4958548;28;20505;-33
2024/01/07 00:13:45;;;;;;;16.47;12.20;;;8.00;99.90;;;;;;4964069;28;21434;-35
2024/01/07 00:16:11;;;;;;;17.33;11.97;;;7.90;99.90;;;;;;4941788;28;20435;-38
2024/01/07 00:18:37;;;;;;;17.63;12.23;;;7.90;99.90;;;;;;4970035;28;20458;-31
2024/01/07 00:21:04;;;;;;;20.47;12.90;;;8.00;99.90;;;;;;4960651;28;20462;-36
2024/01/07 00:23:30;;;;;;;17.47;12.30;;;7.90;99.90;;;;;;4966846;28;20438;-31
2024/01/07 00:25:56;;;;;;;18.50;12.80;;;7.90;99.90;;;;;;4965377;28;20849;-39
2024/01/07 00:28:22;;;;;;;18.17;12.70;;;8.00;99.90;;;;;;4958380;28;20498;-39
2024/01/07 00:30:50;;;;;;;17.43;11.80;;;7.90;99.90;;;;;;4957063;28;20593;-38
2024/01/07 00:33:16;;;;;;;15.87;11.37;;;7.90;99.90;;;;;;4934845;28;20606;-38
2024/01/07 00:35:44;;;;;;;17.30;12.90;;;7.90;99.90;;;;;;4974091;28;20430;-34
2024/01/07 00:38:10;;;;;;;16.07;11.90;;;8.00;99.90;;;;;;4957467;28;20545;-37
2024/01/07 00:40:38;;;;;;;16.97;11.50;;;7.90;99.90;;;;;;4973573;28;21083;-37
2024/01/07 00:43:06;;;;;;;16.40;11.90;;;7.90;99.90;;;;;;4958810;28;20431;-38
2024/01/07 00:45:35;;;;;;;17.07;12.30;;;8.00;99.90;;;;;;4960330;28;20431;-36
2024/01/07 00:48:04;;;;;;;18.47;12.27;;;7.90;99.90;;;;;;4957233;28;20961;-38
2024/01/07 00:50:31;;;;;;;18.33;12.43;;;7.90;99.90;;;;;;4962315;28;20465;-36
2024/01/07 00:52:59;;;;;;;16.47;11.57;;;7.90;99.90;;;;;;4962031;28;20458;-33
2024/01/07 00:55:27;;;;;;;15.83;11.40;;;7.90;99.90;;;;;;4960919;28;21320;-28
2024/01/07 00:57:53;;;;;;;16.70;11.43;;;7.90;99.90;;;;;;4964282;28;20446;-31
2024/01/07 01:00:22;;;;;;;15.67;11.77;;;7.90;99.90;;;;;;4970878;28;20501;-38
2024/01/07 01:02:48;;;;;;;15.90;11.23;;;7.90;99.90;;;;;;4948404;28;20446;-35
2024/01/07 01:05:17;;;;;;;15.60;11.30;;;7.90;99.90;;;;;;4963888;28;20438;-36
2024/01/07 01:07:47;;;;;;;16.30;11.20;;;7.90;99.90;;;;;;4953288;28;20477;-38
2024/01/07 01:10:16;;;;;;;15.83;11.70;;;7.90;99.90;;;;;;4966952;28;20888;-30
2024/01/07 01:12:43;;;;;;;17.40;13.10;;;7.90;99.90;;;;;;4947840;28;20696;-33
2024/01/07 01:15:11;;;;;;;16.40;12.20;;;7.90;99.90;;;;;;4963215;28;20482;-39
2024/01/07 01:17:37;;;;;;;17.17;11.20;;;7.90;99.90;;;;;;4960794;28;20477;-37
2024/01/07 01:20:05;;;;;;;19.10;12.90;;;7.90;99.90;;;;;;4965687;28;20438;-31
2024/01/07 01:22:30;;;;;;;15.70;11.20;;;7.90;99.90;;;;;;4964788;28;20433;-32
2024/01/07 01:24:58;;;;;;;17.00;11.80;;;7.90;99.90;;;;;;4967250;28;20426;-38
2024/01/07 01:27:25;;;;;;;14.30;10.80;;;7.80;99.90;;;;;;4970679;28;20525;-35
2024/01/07 01:29:51;;;;;;;18.33;13.27;;;7.90;99.90;;;;;;4964633;28;20576;-35
2024/01/07 01:32:17;;;;;;;15.63;11.57;;;7.80;99.90;;;;;;4961831;28;20862;-37
2024/01/07 01:34:48;;;;;;;15.70;11.10;;;7.80;99.90;;;;;;4966954;28;20430;-33
2024/01/07 01:37:15;;;;;;;13.70;10.93;;;7.80;99.90;;;;;;4965416;28;20442;-36
2024/01/07 01:39:41;;;;;;;15.30;11.27;;;7.90;99.90;;;;;;4960314;28;20426;-35
2024/01/07 01:42:10;;;;;;;14.37;10.67;;;7.80;99.90;;;;;;4960680;28;20430;-34
2024/01/07 01:44:36;;;;;;;15.40;11.70;;;7.80;99.90;;;;;;4963519;28;20988;-35
2024/01/07 01:47:02;;;;;;;16.03;11.53;;;7.80;99.90;;;;;;4975390;28;20427;-35
2024/01/07 01:49:30;;;;;;;16.17;11.57;;;7.80;99.90;;;;;;4944750;28;20909;-34
2024/01/07 01:51:57;;;;;;;14.80;11.30;;;7.80;99.90;;;;;;4978626;28;20467;-32
2024/01/07 01:54:23;;;;;;;15.07;11.23;;;7.80;99.90;;;;;;4981101;28;20450;-33
2024/01/07 01:56:52;;;;;;;15.27;11.10;;;7.80;99.90;;;;;;4963530;28;20459;-35
2024/01/07 01:59:20;;;;;;;13.13;10.47;;;7.80;99.90;;;;;;4944098;28;20454;-35
2024/01/07 02:01:48;;;;;;;17.33;11.83;;;7.80;99.90;;;;;;4969009;28;20425;-34
2024/01/07 02:04:15;;;;;;;14.73;11.03;;;7.80;99.90;;;;;;4962649;28;20474;-34
2024/01/07 02:06:42;;;;;;;14.30;10.57;;;7.80;99.90;;;;;;4968492;28;20470;-35
2024/01/07 02:09:16;;;;;;;13.20;9.30;;;7.80;99.90;;;;;;4960117;28;20442;-35
2024/01/07 02:11:42;;;;;;;15.27;10.80;;;7.80;99.90;;;;;;4969416;28;20521;-36
2024/01/07 02:14:08;;;;;;;13.67;9.50;;;7.80;99.90;;;;;;4965368;28;20462;-32
2024/01/07 02:16:34;;;;;;;13.13;9.93;;;7.80;99.90;;;;;;4970663;28;20425;-34
2024/01/07 02:19:00;;;;;;;18.87;10.43;;;7.80;99.90;;;;;;4975135;28;20453;-39
2024/01/07 02:21:26;;;;;;;12.60;9.33;;;7.80;99.90;;;;;;4976429;28;20972;-37
2024/01/07 02:23:52;;;;;;;13.07;10.07;;;7.80;99.90;;;;;;4966563;28;20486;-37
2024/01/07 02:26:20;;;;;;;14.03;10.20;;;7.80;99.90;;;;;;4963854;28;21001;-35
2024/01/07 02:28:46;;;;;;;12.30;9.90;;;7.80;99.90;;;;;;4962084;28;20558;-44
2024/01/07 02:31:12;;;;;;;14.57;9.90;;;7.80;99.90;;;;;;4963543;28;20553;-35
2024/01/07 02:33:39;;;;;;;14.40;11.00;;;7.80;99.90;;;;;;4964962;28;20463;-33
2024/01/07 02:36:05;;;;;;;12.17;9.17;;;7.80;99.90;;;;;;4967751;28;21061;-37
2024/01/07 02:38:31;;;;;;;14.70;10.07;;;7.80;99.90;;;;;;4965029;28;21051;-35
2024/01/07 02:40:57;;;;;;;12.00;10.10;;;7.80;99.90;;;;;;4953489;28;20560;-39
2024/01/07 02:43:23;;;;;;;13.20;9.80;;;7.80;99.90;;;;;;4958264;28;21084;-38
2024/01/07 02:45:49;;;;;;;12.17;8.90;;;7.80;99.90;;;;;;4959610;28;20541;-39
2024/01/07 02:48:15;;;;;;;12.00;10.30;;;7.70;99.90;;;;;;4959327;28;21075;-37
2024/01/07 02:50:47;;;;;;;14.97;10.53;;;7.70;99.90;;;;;;4973834;28;20545;-38
2024/01/07 02:53:16;;;;;;;13.37;9.70;;;7.80;99.90;;;;;;4957747;28;20426;-37
2024/01/07 02:55:45;;;;;;;12.30;10.40;;;7.80;99.90;;;;;;4961603;28;20437;-36
2024/01/07 02:58:11;;;;;;;14.97;9.97;;;7.70;99.90;;;;;;4974031;28;20445;-39
2024/01/07 03:00:37;;;;;;;15.83;11.00;;;7.70;99.90;;;;;;4958914;28;20426;-38
2024/01/07 03:03:04;;;;;;;14.87;10.70;;;7.80;99.90;;;;;;4961249;28;20805;-38
2024/01/07 03:05:32;;;;;;;14.37;10.80;;;7.70;99.90;;;;;;4973459;28;20434;-37
2024/01/07 03:08:02;;;;;;;13.90;10.53;;;7.80;99.90;;;;;;4960611;28;20443;-34
2024/01/07 03:10:28;;;;;;;13.20;9.60;;;7.70;99.90;;;;;;4970136;28;20988;-35
2024/01/07 03:12:55;;;;;;;14.20;10.27;;;7.70;99.90;;;;;;4962528;28;20485;-35
2024/01/07 03:15:23;;;;;;;16.63;11.40;;;7.70;99.90;;;;;;4976456;28;20940;-34
2024/01/07 03:17:49;;;;;;;13.80;10.30;;;7.70;99.90;;;;;;4964222;28;20446;-29
2024/01/07 03:20:15;;;;;;;13.07;10.17;;;7.70;99.90;;;;;;4959097;28;20473;-35
2024/01/07 03:22:47;;;;;;;14.17;10.73;;;7.70;99.90;;;;;;4960852;28;20453;-31
2024/01/07 03:25:15;;;;;;;15.17;11.33;;;7.70;99.90;;;;;;4958025;28;20434;-34
2024/01/07 03:27:45;;;;;;;16.90;10.90;;;7.70;99.90;;;;;;4958792;28;20953;-32
2024/01/07 03:30:11;;;;;;;14.53;10.40;;;7.70;99.90;;;;;;4957131;28;20441;-33
2024/01/07 03:32:37;;;;;;;17.93;11.30;;;7.70;99.90;;;;;;4956994;28;20605;-30
2024/01/07 03:35:08;;;;;;;14.10;11.07;;;7.70;99.90;;;;;;4956312;28;20450;-29
2024/01/07 03:37:35;;;;;;;19.40;11.70;;;7.70;99.90;;;;;;4961649;28;20473;-38
2024/01/07 03:40:01;;;;;;;16.63;11.67;;;7.70;99.90;;;;;;4964798;28;20434;-35
2024/01/07 03:42:29;;;;;;;16.20;10.27;;;7.70;99.90;;;;;;4962369;28;20450;-32
2024/01/07 03:44:55;;;;;;;15.53;10.40;;;7.70;99.90;;;;;;4974614;28;20476;-35
2024/01/07 03:47:22;;;;;;;15.83;11.27;;;7.70;99.90;;;;;;4966000;28;20434;-34
2024/01/07 03:49:48;;;;;;;17.13;11.50;;;7.70;99.90;;;;;;4965474;28;20458;-37
2024/01/07 03:52:14;;;;;;;14.77;10.33;;;7.70;99.90;;;;;;4959953;28;21214;-36
2024/01/07 03:54:40;;;;;;;12.77;9.40;;;7.70;99.90;;;;;;4971248;28;20508;-35
2024/01/07 03:57:08;;;;;;;14.20;9.40;;;7.70;99.90;;;;;;4971477;28;20441;-35
2024/01/07 03:59:34;;;;;;;14.90;10.97;;;7.70;99.90;;;;;;4957959;28;20441;-35
2024/01/07 04:02:00;;;;;;;14.23;11.47;;;7.70;99.90;;;;;;4959340;28;20458;-29
2024/01/07 04:04:26;;;;;;;12.20;10.00;;;7.70;99.90;;;;;;4960069;28;20500;-33
2024/01/07 04:06:52;;;;;;;15.53;10.83;;;7.70;99.90;;;;;;4958747;28;20952;-33
2024/01/07 04:09:18;;;;;;;14.57;10.80;;;7.70;99.90;;;;;;4956262;28;21348;-36
2024/01/07 04:11:44;;;;;;;14.70;10.40;;;7.60;99.90;;;;;;4958214;28;20478;-33
2024/01/07 04:14:13;;;;;;;14.40;10.30;;;7.60;99.90;;;;;;4956222;28;20506;-36
2024/01/07 04:16:42;;;;;;;15.40;9.90;;;7.60;99.90;;;;;;4972469;28;20492;-34
2024/01/07 04:19:08;;;;;;;13.90;10.07;;;7.60;99.90;;;;;;4969510;28;20465;-37
2024/01/07 04:21:35;;;;;;;13.80;10.17;;;7.60;99.90;;;;;;4957999;28;20443;-35
2024/01/07 04:24:02;;;;;;;13.60;11.57;;;7.60;99.90;;;;;;4958640;28;20450;-36
2024/01/07 04:26:28;;;;;;;15.20;10.97;;;7.60;99.90;;;;;;4963555;28;21225;-35
2024/01/07 04:28:54;;;;;;;12.83;10.53;;;7.60;99.90;;;;;;4962056;28;20449;-37
2024/01/07 04:31:22;;;;;;;14.73;10.57;;;7.60;99.90;;;;;;4968816;28;20304;-36
2024/01/07 04:33:50;;;;;;;15.90;11.03;;;7.60;99.90;;;;;;4976875;28;20489;-37
2024/01/07 04:36:21;;;;;;;13.43;10.47;;;7.60;99.90;;;;;;4967986;28;20450;-36
2024/01/07 04:38:47;;;;;;;14.37;10.30;;;7.60;99.90;;;;;;4966908;28;20450;-39
2024/01/07 04:41:14;;;;;;;15.83;11.43;;;7.60;99.90;;;;;;4965632;28;20449;-36
2024/01/07 04:43:43;;;;;;;12.60;10.43;;;7.60;99.90;;;;;;4970633;28;21931;-39
2024/01/07 04:46:12;;;;;;;13.60;10.13;;;7.60;99.90;;;;;;4966830;28;20422;-38
2024/01/07 04:48:40;;;;;;;13.23;10.53;;;7.60;99.90;;;;;;4967048;28;20458;-37
2024/01/07 04:51:07;;;;;;;14.07;10.83;;;7.60;99.90;;;;;;4967508;28;20565;-34
2024/01/07 04:53:33;;;;;;;15.10;11.13;;;7.60;99.90;;;;;;4963912;28;20942;-32
2024/01/07 04:56:06;;;;;;;11.10;9.67;;;7.60;99.90;;;;;;4964989;28;20450;-36
2024/01/07 04:58:34;;;;;;;13.77;10.50;;;7.60;99.90;;;;;;4947375;28;20445;-34
2024/01/07 05:01:03;;;;;;;13.93;10.27;;;7.50;99.90;;;;;;4971565;28;20473;-38
2024/01/07 05:03:29;;;;;;;13.80;10.87;;;7.50;99.90;;;;;;4961303;28;20758;-38
2024/01/07 05:05:55;;;;;;;11.40;9.93;;;7.50;99.90;;;;;;4975035;28;20426;-37
2024/01/07 05:08:27;;;;;;;12.83;10.73;;;7.50;99.90;;;;;;4960525;28;20450;-34
2024/01/07 05:11:02;;;;;;;16.00;11.43;;;7.50;99.90;;;;;;4962323;28;21295;-33
2024/01/07 05:13:33;;;;;;;11.80;9.47;;;7.50;99.90;;;;;;4959178;28;20493;-38
2024/01/07 05:16:06;;;;;;;12.30;10.70;;;7.50;99.90;;;;;;4969676;28;20873;-33
2024/01/07 05:18:34;;;;;;;15.07;10.43;;;7.50;99.90;;;;;;4973738;28;20502;-36
2024/01/07 05:21:00;;;;;;;12.90;9.97;;;7.50;99.90;;;;;;4960770;28;21215;-41
2024/01/07 05:23:29;;;;;;;12.70;11.00;;;7.50;99.90;;;;;;4974436;28;20449;-39
2024/01/07 05:26:02;;;;;;;11.53;10.27;;;7.50;99.90;;;;;;4960929;28;20427;-40
2024/01/07 05:28:40;;;;;;;14.23;10.20;;;7.50;99.90;;;;;;4960050;28;20445;-38
2024/01/07 05:31:17;;;;;;;14.83;11.10;;;7.50;99.90;;;;;;4956867;28;21063;-40
2024/01/07 05:33:47;;;;;;;13.00;10.57;;;7.50;99.90;;;;;;4960631;28;20503;-38
2024/01/07 05:36:24;;;;;;;12.33;10.03;;;7.50;99.90;;;;;;4960519;28;21931;-40
2024/01/07 05:38:51;;;;;;;12.83;10.57;;;7.50;99.90;;;;;;4974090;28;20453;-36
2024/01/07 05:41:25;;;;;;;13.20;10.23;;;7.50;99.90;;;;;;4960340;28;20513;-41
2024/01/07 05:43:56;;;;;;;13.67;10.33;;;7.50;99.90;;;;;;4961745;28;21168;-39
2024/01/07 05:46:45;;;;;;;13.10;11.23;;;7.50;99.90;;;;;;4966640;28;20439;-37
2024/01/07 05:49:24;;;;;;;14.03;10.70;;;7.50;99.90;;;;;;4985854;28;20470;-39
2024/01/07 05:52:03;;;;;;;12.97;10.83;;;7.50;99.90;;;;;;4966210;28;20473;-38
2024/01/07 05:54:29;;;;;;;11.83;9.70;;;7.50;99.90;;;;;;4971810;28;20429;-38
2024/01/07 05:57:03;;;;;;;16.57;11.23;;;7.50;99.90;;;;;;4968646;28;20421;-38
2024/01/07 05:59:28;;;;;;;13.83;10.07;;;7.50;99.90;;;;;;4967225;28;20533;-34
2024/01/07 06:02:12;;;;;;;13.70;10.43;;;7.40;99.90;;;;;;4967381;28;20442;-40
2024/01/07 06:04:41;;;;;;;13.43;10.73;;;7.40;99.90;;;;;;4961239;28;20961;-39
2024/01/07 06:07:46;;;;;;;11.27;9.80;;;7.50;99.90;;;;;;4979512;28;20426;-37
2024/01/07 06:10:16;;;;;;;12.90;10.27;;;7.40;99.90;;;;;;4963633;28;20456;-39
2024/01/07 06:17:18;;;;;;;12.57;9.47;;;7.40;99.90;;;;;;4968358;28;20449;-39
2024/01/07 06:19:56;;;;;;;13.40;10.17;;;7.40;99.90;;;;;;4980605;28;20487;-37
2024/01/07 06:22:50;;;;;;;14.33;9.67;;;7.40;99.90;;;;;;4982449;28;20461;-37
2024/01/07 06:25:33;;;;;;;13.23;10.23;;;7.40;99.90;;;;;;4973718;28;20444;-38
2024/01/07 06:28:21;;;;;;;12.47;10.33;;;7.40;99.90;;;;;;4965924;28;20517;-38
2024/01/07 06:30:49;;;;;;;17.33;10.30;;;7.40;99.90;;;;;;4966358;28;20466;-37
2024/01/07 06:33:16;;;;;;;14.10;10.10;;;7.40;99.90;;;;;;4965038;28;20521;-39
2024/01/07 06:35:42;;;;;;;12.00;9.93;;;7.40;99.90;;;;;;4966389;28;20461;-33
2024/01/07 06:38:09;;;;;;;14.40;10.67;;;7.40;99.90;;;;;;4967740;28;20913;-36
2024/01/07 06:40:36;;;;;;;11.63;9.50;;;7.40;99.90;;;;;;4959564;28;20434;-37
2024/01/07 06:43:02;;;;;;;17.07;11.40;;;7.40;99.90;;;;;;4966536;28;20970;-37
2024/01/07 06:45:30;;;;;;;14.03;9.60;;;7.40;99.90;;;;;;4973756;28;20946;-40
2024/01/07 06:47:58;;;;;;;16.80;11.50;;;7.40;99.90;;;;;;4972303;28;20880;-41
2024/01/07 06:50:24;;;;;;;13.07;10.37;;;7.40;99.90;;;;;;4966683;28;20429;-35
2024/01/07 06:52:53;;;;;;;15.83;10.63;;;7.30;99.90;;;;;;4973934;28;20449;-39
2024/01/07 06:55:19;;;;;;;16.00;11.83;;;7.40;99.90;;;;;;4965735;28;20987;-35
2024/01/07 06:57:45;;;;;;;15.30;11.57;;;7.40;99.90;;;;;;4965629;28;20435;-38
2024/01/07 07:00:12;;;;;;;13.67;11.17;;;7.30;99.90;;;;;;4969219;28;20495;-39
2024/01/07 07:06:08;;;;;;;13.43;10.33;;;7.30;99.90;;;;;;4962412;28;20470;-34
2024/01/07 07:08:34;;;;;;;15.33;11.60;;;7.30;99.90;;;;;;4959916;28;21368;-37
2024/01/07 07:11:01;;;;;;;14.50;11.27;;;7.30;99.90;;;;;;4964023;28;20472;-39
2024/01/07 07:13:27;;;;;;;15.67;11.10;;;7.30;99.90;;;;;;4963839;28;20848;-39
2024/01/07 07:15:53;;;;;;;15.03;11.70;;;7.30;99.90;;;;;;4960259;28;20516;-33
2024/01/07 07:18:24;;;;;;;14.40;10.40;;;7.30;99.90;;;;;;4959009;28;20547;-38
2024/01/07 07:20:55;;;;;;;13.00;10.70;;;7.30;99.90;;;;;;4967832;28;20486;-36
2024/01/07 07:23:25;;;;;;;15.33;11.33;;;7.30;99.90;;;;;;4981245;28;20434;-39
2024/01/07 07:25:51;;;;;;;13.63;10.53;;;7.30;99.90;;;;;;4965434;28;20996;-36
2024/01/07 07:28:17;;;;;;;13.60;10.40;;;7.30;99.90;;;;;;4960349;28;20442;-38
2024/01/07 07:30:45;;;;;;;15.27;11.30;;;7.30;99.90;;;;;;5062441;22;20499;-27
2024/01/07 07:33:13;;;;;;;14.27;11.60;;;7.30;99.90;;;;;;5026504;28;20953;-27
2024/01/07 07:35:41;;;;;;;14.53;10.87;;;7.30;99.90;;;;;;5037164;28;20503;-27
2024/01/07 07:38:07;;;;;;;15.77;12.20;;;7.30;99.90;;;;;;5029730;28;20585;-27
2024/01/07 07:40:38;;;;;;;17.33;12.07;;;7.30;99.90;;;;;;5043843;28;20427;-27
2024/01/07 07:43:04;;;;;;;14.40;11.73;;;7.30;99.90;;;;;;5043908;28;20442;-27
2024/01/07 07:45:32;;;;;;;13.40;10.23;;;7.30;99.90;;;;;;5033818;28;20970;-27
2024/01/07 07:47:59;;;;;;;14.17;10.97;;;7.30;99.90;;;;;;5039610;28;20454;-28
2024/01/07 07:50:25;;;;;;;14.43;11.30;;;7.30;99.90;;;;;;5029880;28;20973;-28
2024/01/07 07:52:51;;;;;;;15.90;12.00;;;7.30;99.90;;;;;;5030671;28;20450;-27
2024/01/07 07:55:17;;;;;;;15.40;11.50;;;7.20;99.90;;;;;;5043926;28;20512;-28
2024/01/07 07:57:44;;;;;;;14.70;11.50;;;7.20;99.90;;;;;;5040651;28;20443;-27
2024/01/07 08:00:16;;;;;;;17.93;12.50;;;7.30;99.90;;;;;;5031697;28;20443;-27
2024/01/07 08:02:49;;;;;;;14.73;11.30;;;7.20;99.90;;;;;;5015702;28;20464;-28
2024/01/07 08:05:18;;;;;;;15.67;11.00;;;7.30;99.90;;;;;;5030275;28;20432;-27
2024/01/07 08:07:47;;;;;;;16.60;12.20;;;7.20;99.90;;;;;;5044205;28;20439;-28
2024/01/07 08:10:13;;;;;;;14.80;10.93;;;7.20;99.90;;;;;;5033489;28;20802;-33
2024/01/07 08:12:50;;;;;;;16.33;11.27;;;7.20;99.90;;;;;;5044723;28;20629;-28
2024/01/07 08:15:22;;;;;;;19.87;12.10;;;7.20;99.90;;;;;;5044168;28;20465;-28
2024/01/07 08:19:01;;;;;;;;;;;;;;;;;;;;;
2024/01/07 08:24:57;;;;;;;14.30;10.40;;;7.20;99.90;;;;;;5360095;22;21039;-26
2024/01/07 08:27:27;;;;;;;14.17;11.23;;;7.20;99.90;;;;;;5061156;28;20484;-26
2024/01/07 08:33:01;;;;;;;13.00;9.83;;;7.20;99.90;;;;;;4997783;28;20505;-26
2024/01/07 08:35:27;;;;;;;15.20;11.37;;;7.10;99.90;;;;;;5036720;28;20415;-26
2024/01/07 08:38:22;;;;;;;15.80;10.87;;;7.20;99.90;;;;;;5042918;28;20435;-26
2024/01/07 08:41:10;;;;;;;13.00;9.93;;;7.20;99.90;;;;;;5043504;28;20430;-26
2024/01/07 08:43:47;;;;;;;12.80;9.70;;;7.10;99.90;;;;;;5027296;28;20453;-26
2024/01/07 08:46:16;;;;;;;14.10;10.60;;;7.10;99.90;;;;;;5044176;28;20423;-26
2024/01/07 08:48:45;;;;;;;12.10;10.67;;;7.10;99.90;;;;;;5041470;28;20816;-26
2024/01/07 08:51:29;;;;;;;16.87;10.33;;;7.10;99.90;;;;;;5009789;28;21112;-26
2024/01/07 08:54:13;;;;;;;13.83;10.00;;;7.10;99.90;;;;;;4996858;28;20514;-25
2024/01/07 08:56:40;;;;;;;13.30;9.60;;;7.10;99.90;;;;;;5035428;28;20514;-26
2024/01/07 08:59:27;;;;;;;12.13;10.00;;;7.10;99.90;;;;;;5020985;28;20478;-26
2024/01/07 09:02:09;;;;;;;13.30;9.53;;;7.10;99.90;;;;;;5038723;28;20910;-27
2024/01/07 09:04:38;;;;;;;14.27;9.10;;;7.10;99.90;;;;;;5025451;28;20407;-33
2024/01/07 09:07:04;;;;;;;12.50;9.47;;;7.10;99.90;;;;;;5044135;28;20411;-27
2024/01/07 09:09:30;;;;;;;12.40;9.83;;;7.10;99.90;;;;;;5025199;28;20500;-27
2024/01/07 09:11:57;;;;;;;13.43;10.50;;;7.10;99.90;;;;;;5025903;28;20434;-27
2024/01/07 09:14:25;;;;;;;11.83;8.53;;;7.10;99.90;;;;;;5043177;28;20726;-27
2024/01/07 09:16:51;;;;;;;14.77;9.13;;;7.10;99.90;;;;;;5044044;28;20395;-27
2024/01/07 09:19:17;;;;;;;12.00;10.30;;;7.10;99.90;;;;;;5026113;28;20458;-27
2024/01/07 09:21:43;;;;;;;12.77;10.07;;;7.10;99.90;;;;;;5043994;28;20980;-27
2024/01/07 09:24:12;;;;;;;13.00;10.80;;;7.10;99.90;;;;;;5009921;28;20458;-26
2024/01/07 09:26:41;;;;;;;13.43;9.90;;;7.10;99.90;;;;;;5026741;28;20437;-27
2024/01/07 09:29:10;;;;;;;12.73;10.33;;;7.10;99.90;;;;;;5044952;28;20978;-26
2024/01/07 09:31:36;;;;;;;12.50;9.07;;;7.10;99.90;;;;;;5009084;28;20905;-27
2024/01/07 09:34:03;;;;;;;13.10;9.70;;;7.10;99.90;;;;;;5026112;28;20431;-27
2024/01/07 09:36:29;;;;;;;11.90;9.45;;;7.10;99.90;;;;;;5025023;28;20407;-27
2024/01/07 09:38:55;;;;;;;10.23;8.90;;;7.10;99.90;;;;;;5028629;28;20241;-26
2024/01/07 09:41:21;;;;;;;13.67;10.07;;;7.00;99.90;;;;;;5046751;28;20532;-26
2024/01/07 09:43:51;;;;;;;10.43;8.83;;;7.00;99.90;;;;;;5042026;28;20855;-27
2024/01/07 09:46:19;;;;;;;12.80;9.60;;;7.00;99.90;;;;;;5041069;28;20545;-27
2024/01/07 09:48:45;;;;;;;13.90;9.77;;;7.00;99.90;;;;;;5022990;28;20549;-27
2024/01/07 09:51:12;;;;;;;10.40;8.87;;;7.00;99.90;;;;;;5004853;28;21018;-27
2024/01/07 09:53:42;;;;;;;12.53;8.80;;;7.00;99.90;;;;;;5041039;28;20469;-27
2024/01/07 09:56:11;;;;;;;11.60;8.97;;;7.00;99.90;;;;;;5040613;28;20419;-26
2024/01/07 09:58:43;;;;;;;12.50;9.57;;;7.00;99.90;;;;;;5017052;28;20547;-26
2024/01/07 10:01:10;;;;;;;14.57;10.10;;;7.00;99.90;;;;;;5038433;28;20508;-26
2024/01/07 10:03:37;;;;;;;10.33;8.63;;;7.00;99.90;;;;;;5049984;28;20932;-25
2024/01/07 10:06:05;;;;;;;10.53;9.13;;;7.00;99.90;;;;;;5022434;28;20426;-26
2024/01/07 10:08:34;;;;;;;11.20;8.83;;;7.00;99.90;;;;;;5040627;28;20455;-26
2024/01/07 10:11:02;;;;;;;12.50;9.57;;;7.00;99.90;;;;;;5037945;28;20997;-26
2024/01/07 10:13:28;;;;;;;10.63;9.27;;;7.00;99.90;;;;;;5022199;28;20467;-26
2024/01/07 10:15:56;;;;;;;11.93;8.67;;;7.00;99.90;;;;;;5035180;28;20734;-26
2024/01/07 10:18:22;;;;;;;12.13;8.77;;;7.00;99.90;;;;;;5040211;28;20628;-26
2024/01/07 10:20:48;;;;;;;10.80;9.70;;;7.00;99.90;;;;;;5006293;28;20452;-26
2024/01/07 10:23:21;;;;;;;11.33;9.27;;;7.00;99.90;;;;;;5040210;28;20426;-27
2024/01/07 10:25:55;;;;;;;11.70;9.50;;;7.00;99.90;;;;;;5040861;28;20552;-27
2024/01/07 10:28:25;;;;;;;10.40;8.87;;;7.00;99.90;;;;;;5042023;28;20446;-24
2024/01/07 10:30:52;;;;;;;12.27;10.27;;;7.00;99.90;;;;;;5043706;28;20524;-26
2024/01/07 10:33:25;;;;;;;12.17;10.23;;;7.00;99.90;;;;;;5021333;28;20459;-26
2024/01/07 10:36:05;;;;;;;11.87;9.30;;;6.90;99.90;;;;;;5025969;28;20439;-25
2024/01/07 10:38:36;;;;;;;11.23;10.03;;;6.90;99.90;;;;;;5039086;28;20596;-26
2024/01/07 10:41:03;;;;;;;10.93;9.60;;;6.90;99.90;;;;;;5043637;28;20752;-25
2024/01/07 10:43:36;;;;;;;10.40;8.87;;;7.00;99.90;;;;;;5039873;28;20423;-26
2024/01/07 10:46:31;;;;;;;11.80;9.77;;;6.90;99.90;;;;;;5026674;28;20415;-26
2024/01/07 10:49:07;;;;;;;11.27;10.07;;;6.90;99.90;;;;;;5039471;28;21083;-24
2024/01/07 10:51:36;;;;;;;10.90;8.57;;;6.90;99.80;;;;;;5033454;28;20679;-25
2024/01/07 10:54:03;;;;;;;11.00;8.70;;;6.90;99.90;;;;;;5041952;28;20787;-26
2024/01/07 10:56:48;;;;;;;12.40;9.70;;;6.90;99.90;;;;;;5023657;28;20434;-24
2024/01/07 10:59:19;;;;;;;11.50;9.47;;;6.90;99.80;;;;;;5010453;28;20431;-24
2024/01/07 11:01:45;;;;;;;10.90;9.67;;;6.90;99.70;;;;;;5024382;28;20415;-25
2024/01/07 11:04:57;;;;;;;12.40;9.37;;;6.90;99.70;;;;;;5042389;28;20811;-25
2024/01/07 11:07:37;;;;;;;11.27;9.93;;;6.90;99.80;;;;;;5019004;28;20433;-25
2024/01/07 11:10:09;;;;;;;12.80;10.03;;;6.90;99.80;;;;;;5017345;28;20427;-25
2024/01/07 11:12:35;;;;;;;11.40;10.20;;;6.90;99.80;;;;;;5024200;28;20455;-25
2024/01/07 11:15:02;;;;;;;11.80;8.97;;;6.90;99.70;;;;;;5043202;28;20868;-25
2024/01/07 11:17:37;;;;;;;12.17;9.30;;;6.80;99.60;;;;;;5005382;28;20492;-25
2024/01/07 11:20:05;;;;;;;10.70;8.30;;;6.90;99.50;;;;;;5037651;28;20423;-26
2024/01/07 11:22:32;;;;;;;11.33;9.10;;;6.90;99.50;;;;;;5004927;28;20447;-24
2024/01/07 11:25:02;;;;;;;9.13;8.03;;;6.90;99.80;;;;;;5039775;28;20431;-25
2024/01/07 11:27:33;;;;;;;11.17;8.83;;;6.80;99.50;;;;;;5022128;28;20435;-25
2024/01/07 11:30:22;;;;;;;11.67;9.50;;;6.90;99.60;;;;;;5039396;28;20434;-25
2024/01/07 11:32:55;;;;;;;9.73;8.60;;;6.80;99.50;;;;;;5002522;28;20990;-26
2024/01/07 11:35:52;;;;;;;9.77;8.43;;;6.90;99.60;;;;;;5038715;28;20958;-26
2024/01/07 11:38:18;;;;;;;11.47;9.00;;;6.80;99.50;;;;;;5033976;28;20970;-26
2024/01/07 11:40:49;;;;;;;10.40;8.23;;;6.80;99.50;;;;;;5022291;28;20865;-26
2024/01/07 11:43:15;;;;;;;10.90;8.50;;;6.80;99.50;;;;;;5021742;28;20435;-26
2024/01/07 11:45:41;;;;;;;11.53;8.07;;;6.80;99.50;;;;;;5038908;28;20433;-25
2024/01/07 11:48:07;;;;;;;9.33;8.43;;;6.80;99.40;;;;;;5016930;28;20458;-26
2024/01/07 11:50:35;;;;;;;10.27;8.00;;;6.80;99.30;;;;;;5023815;28;20434;-25
2024/01/07 11:53:01;;;;;;;9.20;7.67;;;6.80;99.40;;;;;;5024327;28;20806;-25
2024/01/07 11:55:34;;;;;;;11.10;8.37;;;6.80;99.40;;;;;;5033832;28;20517;-26
2024/01/07 11:58:05;;;;;;;10.13;7.70;;;6.80;99.50;;;;;;5024154;28;20462;-26
2024/01/07 12:00:34;;;;;;;11.37;8.40;;;6.80;99.50;;;;;;5040115;28;20439;-26
2024/01/07 12:03:03;;;;;;;9.70;8.00;;;6.80;99.50;;;;;;5022125;28;20456;-26
2024/01/07 12:05:36;;;;;;;9.73;7.87;;;6.80;99.40;;;;;;5039333;28;20450;-25
2024/01/07 12:08:03;;;;;;;9.37;8.20;;;6.80;99.30;;;;;;5035309;28;20522;-26
2024/01/07 12:10:29;;;;;;;9.13;7.67;;;6.80;99.30;;;;;;5041705;28;20412;-26
2024/01/07 12:12:56;;;;;;;9.87;8.67;;;6.80;99.30;;;;;;5019501;28;20492;-26
2024/01/07 12:15:24;;;;;;;10.13;8.07;;;6.80;99.20;;;;;;5036676;28;20444;-26
2024/01/07 12:18:01;;;;;;;8.53;7.00;;;6.80;99.20;;;;;;5037420;28;20979;-25
2024/01/07 12:20:29;;;;;;;9.48;8.10;;;6.80;99.10;;;;;;5040476;28;21108;-25
2024/01/07 12:23:10;;;;;;;9.17;8.27;;;6.80;99.20;;;;;;5042481;28;20207;-26
2024/01/07 12:25:45;;;;;;;11.53;8.20;;;6.80;99.10;;;;;;5038506;28;20439;-26
2024/01/07 12:28:10;;;;;;;8.57;7.60;;;6.80;99.10;;;;;;5040917;28;20442;-26
2024/01/07 12:30:38;;;;;;;8.37;7.27;;;6.80;99.00;;;;;;5040526;28;20434;-26
2024/01/07 12:33:07;;;;;;;8.57;7.77;;;6.80;99.10;;;;;;5021146;28;20628;-26
2024/01/07 12:35:34;;;;;;;8.47;7.67;;;6.80;99.10;;;;;;5020280;28;20431;-26
2024/01/07 12:38:00;;;;;;;8.97;8.07;;;6.80;99.00;;;;;;5017707;28;20446;-26
2024/01/07 12:44:29;;;;;;;8.13;7.30;;;6.70;98.70;;;;;;5044036;28;20943;-26
2024/01/07 12:51:21;;;;;;;8.80;7.67;;;6.70;98.70;;;;;;5041198;28;20474;-25
2024/01/07 12:53:47;;;;;;;8.77;6.93;;;6.70;98.60;;;;;;5004271;28;20415;-26
2024/01/07 12:56:16;;;;;;;8.43;7.30;;;6.70;98.60;;;;;;5038332;28;20431;-27
2024/01/07 12:58:42;;;;;;;8.27;7.43;;;6.70;98.50;;;;;;5041541;28;20936;-25
2024/01/07 13:01:09;;;;;;;9.30;7.57;;;6.70;98.50;;;;;;5021720;28;20911;-27
2024/01/07 13:03:40;;;;;;;9.10;7.10;;;6.70;98.50;;;;;;5024830;28;20427;-28
2024/01/07 13:06:06;;;;;;;8.67;6.97;;;6.70;98.50;;;;;;5027490;28;20628;-26
2024/01/07 13:08:33;;;;;;;7.40;6.60;;;6.70;98.40;;;;;;5041250;28;20485;-27
2024/01/07 13:11:00;;;;;;;7.57;6.63;;;6.70;98.40;;;;;;5025527;28;20475;-26
2024/01/07 13:13:27;;;;;;;7.77;6.87;;;6.70;98.30;;;;;;5022700;28;20465;-26
2024/01/07 13:15:53;;;;;;;10.37;7.10;;;6.70;98.20;;;;;;5010456;28;20469;-27
2024/01/07 13:18:20;;;;;;;7.13;6.37;;;6.70;98.10;;;;;;5021746;28;20495;-27